This is the latest recevied weather packets stored in our database for station/object KC9TVS-13. If no packets are shown the sender has not sent any weather packets the latest 10 day(s).
| Time | Temp. | Humidity | Pressure | Rain* | Wind** | Luminosity | Snow |
|---|---|---|---|---|---|---|---|
| 1788135931 | 80° F | 83% | 762.5 mmHg | 0 in | - | 0 W/m² | - |
| 1788135626 | 80° F | 82% | 762.7 mmHg | 0 in | - | 0 W/m² | - |
| 1788135328 | 81° F | 81% | 762.6 mmHg | 0 in | - | 0 W/m² | - |
| 1788135027 | 81° F | 81% | 762.6 mmHg | 0 in | - | 0 W/m² | - |
| 1788134727 | 81° F | 80% | 762.6 mmHg | 0 in | - | 0 W/m² | - |
| 1788134428 | 81° F | 79% | 762.5 mmHg | 0 in | - | 9 W/m² | - |
| 1788134128 | 82° F | 79% | 762.4 mmHg | 0 in | - | 12 W/m² | - |
| 1788133826 | 83° F | 78% | 762.5 mmHg | 0 in | - | 19 W/m² | - |
| 1788133528 | 83° F | 76% | 762.5 mmHg | 0 in | - | 26 W/m² | - |
| 1788133227 | 84° F | 76% | 762.5 mmHg | 0 in | - | 35 W/m² | - |
| 1788132927 | 84° F | 77% | 762.4 mmHg | 0 in | - | 60 W/m² | - |
| 1788132628 | 84° F | 77% | 762.1 mmHg | 0 in | - | 63 W/m² | - |
| 1788132327 | 84° F | 77% | 762.1 mmHg | 0 in | - | 74 W/m² | - |
| 1788132029 | 84° F | 80% | 762.2 mmHg | 0 in | - | 84 W/m² | - |
| 1788131728 | 84° F | 76% | 762.2 mmHg | 0 in | - | 102 W/m² | - |
| 1788131427 | 84° F | 75% | 762.1 mmHg | 0 in | - | 95 W/m² | - |
| 1788131128 | 85° F | 75% | 762.1 mmHg | 0 in | - | 121 W/m² | - |
| 1788130826 | 85° F | 75% | 762.3 mmHg | 0 in | - | 172 W/m² | - |
| 1788130522 | 85° F | 75% | 762.2 mmHg | 0 in | - | 181 W/m² | - |
| 1788130222 | 85° F | 74% | 762.2 mmHg | 0 in | - | 244 W/m² | - |
| 1788129923 | 85° F | 81% | 762.2 mmHg | 0 in | - | 341 W/m² | - |
| 1788129623 | 85° F | 78% | 762.2 mmHg | 0 in | - | 367 W/m² | - |
| 1788129322 | 84° F | 80% | 762.1 mmHg | 0 in | - | 381 W/m² | - |
| 1788129023 | 84° F | 79% | 762.1 mmHg | 0 in | - | 385 W/m² | - |
| 1788128723 | 84° F | 77% | 761.9 mmHg | 0 in | - | 357 W/m² | - |
* Rain latest hour (hover to see other rain measurements)
** Current wind speed in m/s (hover to see current wind gust speed)